Time;durP1;ratioP1;P1;durP2;ratioP2;P2;SDS_P1;SDS_P2;PMS_P1;PMS_P2;Temp;Humidity;BMP_temperature;BMP_pressure;BME280_temperature;BME280_humidity;BME280_pressure;Samples;Min_cycle;Max_cycle;Signal;HPM_P1;HPM_P2
2023/07/01 00:01:59;;;;;;;8.30;4.40;;;14.30;99.90;;;;;;4998361;28;20425;-74
2023/07/01 00:04:27;;;;;;;7.20;4.40;;;14.20;99.90;;;;;;4998921;28;20565;-74
2023/07/01 00:06:54;;;;;;;4.43;3.90;;;14.10;99.90;;;;;;4998655;28;20458;-74
2023/07/01 00:09:21;;;;;;;6.40;4.10;;;14.10;99.90;;;;;;4998552;28;20494;-74
2023/07/01 00:11:48;;;;;;;4.83;4.10;;;14.00;99.90;;;;;;4998324;28;20458;-74
2023/07/01 00:14:14;;;;;;;6.30;4.57;;;13.80;99.90;;;;;;4998562;28;21047;-74
2023/07/01 00:16:41;;;;;;;5.30;4.10;;;13.70;99.90;;;;;;4998075;28;21009;-73
2023/07/01 00:19:09;;;;;;;4.40;4.00;;;13.60;99.90;;;;;;4998710;28;20471;-74
2023/07/01 00:21:36;;;;;;;9.20;4.47;;;13.50;99.90;;;;;;4998006;28;20482;-74
2023/07/01 00:24:03;;;;;;;4.77;4.23;;;13.50;99.90;;;;;;4997771;28;20491;-74
2023/07/01 00:26:29;;;;;;;9.00;4.63;;;13.40;99.90;;;;;;4997603;28;20462;-74
2023/07/01 00:28:56;;;;;;;8.23;4.67;;;13.40;99.90;;;;;;4998529;28;20443;-74
2023/07/01 00:31:22;;;;;;;9.37;4.67;;;13.40;99.90;;;;;;4997768;28;20489;-74
2023/07/01 00:33:49;;;;;;;7.90;5.10;;;13.40;99.90;;;;;;4998197;28;20450;-74
2023/07/01 00:36:17;;;;;;;5.00;4.50;;;13.40;99.90;;;;;;4998136;28;20454;-74
2023/07/01 00:38:44;;;;;;;5.70;5.17;;;13.40;99.90;;;;;;4997071;28;20454;-74
2023/07/01 00:41:10;;;;;;;8.30;5.10;;;13.30;99.90;;;;;;4997756;28;20480;-72
2023/07/01 00:43:37;;;;;;;5.53;5.03;;;13.30;99.90;;;;;;4997919;28;20494;-72
2023/07/01 00:46:04;;;;;;;5.57;5.07;;;13.20;99.90;;;;;;4997096;28;20451;-73
2023/07/01 00:48:31;;;;;;;7.53;5.50;;;13.20;99.90;;;;;;4997749;28;20990;-74
2023/07/01 00:50:58;;;;;;;7.23;5.20;;;13.30;99.90;;;;;;4998097;28;20461;-74
2023/07/01 00:53:26;;;;;;;5.63;5.13;;;13.30;99.90;;;;;;4997161;28;20475;-74
2023/07/01 00:55:53;;;;;;;5.30;4.90;;;13.30;99.90;;;;;;4997567;28;20426;-74
2023/07/01 00:58:19;;;;;;;9.83;5.50;;;13.30;99.90;;;;;;4997692;28;20441;-74
2023/07/01 01:00:46;;;;;;;11.33;5.13;;;13.30;99.90;;;;;;4997923;28;20452;-74
2023/07/01 01:03:21;;;;;;;5.20;4.70;;;13.30;99.90;;;;;;4997184;28;20490;-74
2023/07/01 01:05:53;;;;;;;5.53;5.00;;;13.30;99.90;;;;;;4996847;28;20429;-74
2023/07/01 01:08:25;;;;;;;9.97;5.33;;;13.30;99.90;;;;;;4997489;28;20507;-74
2023/07/01 01:10:55;;;;;;;5.97;4.83;;;13.30;99.90;;;;;;4997911;28;20438;-74
2023/07/01 01:13:24;;;;;;;11.27;5.37;;;13.30;99.90;;;;;;4996444;28;20528;-73
2023/07/01 01:15:51;;;;;;;9.00;5.10;;;13.30;99.90;;;;;;4997200;28;20485;-74
2023/07/01 01:18:20;;;;;;;5.27;4.53;;;13.20;99.90;;;;;;4996832;28;20523;-72
2023/07/01 01:20:50;;;;;;;7.60;5.00;;;13.20;99.90;;;;;;4996457;28;20461;-72
2023/07/01 01:23:25;;;;;;;5.10;4.43;;;13.10;99.90;;;;;;4997171;28;20521;-72
2023/07/01 01:26:00;;;;;;;7.27;4.83;;;13.10;99.90;;;;;;4996906;28;20972;-72
2023/07/01 01:28:29;;;;;;;6.90;5.07;;;13.00;99.90;;;;;;4997633;28;20450;-72
2023/07/01 01:30:55;;;;;;;5.20;4.80;;;13.00;99.90;;;;;;4997520;28;20462;-74
2023/07/01 01:33:22;;;;;;;8.57;4.60;;;12.90;99.90;;;;;;4996891;28;20470;-74
2023/07/01 01:35:49;;;;;;;7.50;5.07;;;12.80;99.90;;;;;;4996783;28;20442;-74
2023/07/01 01:38:20;;;;;;;5.70;5.07;;;12.70;99.90;;;;;;4996450;28;20931;-74
2023/07/01 01:40:52;;;;;;;8.63;5.10;;;12.60;99.90;;;;;;4996788;28;20966;-74
2023/07/01 01:43:25;;;;;;;9.30;5.33;;;12.60;99.90;;;;;;4997322;28;20491;-74
2023/07/01 01:45:54;;;;;;;5.83;5.07;;;12.60;99.90;;;;;;4996753;28;20974;-74
2023/07/01 01:48:21;;;;;;;5.93;5.33;;;12.60;99.90;;;;;;4997537;28;20515;-74
2023/07/01 01:50:50;;;;;;;9.10;5.33;;;12.60;99.90;;;;;;4996709;28;21041;-73
2023/07/01 01:53:18;;;;;;;7.60;5.03;;;12.60;99.90;;;;;;4996705;28;20479;-74
2023/07/01 01:55:45;;;;;;;5.37;4.87;;;12.60;99.90;;;;;;4996586;28;20453;-74
2023/07/01 01:58:12;;;;;;;7.90;4.73;;;12.60;99.90;;;;;;4996537;28;20457;-74
2023/07/01 02:00:39;;;;;;;5.30;4.80;;;12.60;99.90;;;;;;4997189;28;20447;-74
2023/07/01 02:03:07;;;;;;;8.87;5.47;;;12.60;99.90;;;;;;4996601;28;20491;-74
2023/07/01 02:05:34;;;;;;;8.77;5.47;;;12.60;99.90;;;;;;4996481;28;20525;-74
2023/07/01 02:08:02;;;;;;;5.60;5.10;;;12.60;99.90;;;;;;4996279;28;20475;-74
2023/07/01 02:10:28;;;;;;;5.20;4.63;;;12.50;99.90;;;;;;4996184;28;20473;-74
2023/07/01 02:12:55;;;;;;;6.63;5.37;;;12.40;99.90;;;;;;4996147;28;20452;-73
2023/07/01 02:15:22;;;;;;;6.20;5.00;;;12.30;99.90;;;;;;4996874;28;21022;-73
2023/07/01 02:17:48;;;;;;;5.50;4.73;;;12.40;99.90;;;;;;4996176;28;20450;-73
2023/07/01 02:20:17;;;;;;;5.03;4.63;;;12.40;99.90;;;;;;4996281;28;20459;-74
2023/07/01 02:22:43;;;;;;;6.47;4.90;;;12.50;99.90;;;;;;4996450;28;20873;-74
2023/07/01 02:25:10;;;;;;;5.73;4.83;;;12.50;99.90;;;;;;4996548;28;20458;-74
2023/07/01 02:27:37;;;;;;;6.20;4.53;;;12.50;99.90;;;;;;4996130;28;20502;-74
2023/07/01 02:30:04;;;;;;;5.00;4.57;;;12.60;99.90;;;;;;4996931;28;20467;-74
2023/07/01 02:32:31;;;;;;;5.93;4.93;;;12.60;99.90;;;;;;5000041;28;20500;-74
2023/07/01 02:34:57;;;;;;;5.03;4.30;;;12.70;99.90;;;;;;5000262;28;20476;-74
2023/07/01 02:37:25;;;;;;;5.40;4.90;;;12.70;99.90;;;;;;4999471;28;20524;-74
2023/07/01 02:39:52;;;;;;;5.23;4.63;;;12.70;99.90;;;;;;5000493;28;21131;-74
2023/07/01 02:42:20;;;;;;;13.70;5.20;;;12.70;99.90;;;;;;5000608;28;20455;-74
2023/07/01 02:44:47;;;;;;;8.87;5.07;;;12.60;99.90;;;;;;5000346;28;20863;-74
2023/07/01 02:47:14;;;;;;;7.13;5.00;;;12.60;99.90;;;;;;4999664;28;20476;-74
2023/07/01 02:49:41;;;;;;;7.33;5.00;;;12.60;99.90;;;;;;5000442;28;20446;-74
2023/07/01 02:52:08;;;;;;;9.43;5.60;;;12.50;99.90;;;;;;5000078;28;20460;-73
2023/07/01 02:54:38;;;;;;;5.23;4.83;;;12.40;99.90;;;;;;4999335;28;20455;-74
2023/07/01 02:57:07;;;;;;;8.83;5.40;;;12.40;99.90;;;;;;4999821;28;21178;-74
2023/07/01 02:59:34;;;;;;;6.07;5.50;;;12.50;99.90;;;;;;5000396;28;20505;-74
2023/07/01 03:02:01;;;;;;;5.57;5.13;;;12.50;99.90;;;;;;4999834;28;20470;-74
2023/07/01 03:04:27;;;;;;;5.43;4.73;;;12.50;99.90;;;;;;4999241;28;20491;-73
2023/07/01 03:06:54;;;;;;;9.60;5.50;;;12.50;99.90;;;;;;4999026;28;20471;-74
2023/07/01 03:09:21;;;;;;;6.83;5.23;;;12.50;99.90;;;;;;4999497;28;20520;-73
2023/07/01 03:11:49;;;;;;;9.50;5.33;;;12.50;99.90;;;;;;4999120;28;21256;-74
2023/07/01 03:14:15;;;;;;;6.37;5.50;;;12.60;99.90;;;;;;4999570;28;20536;-74
2023/07/01 03:16:42;;;;;;;9.20;4.83;;;12.60;99.90;;;;;;4999426;28;21015;-74
2023/07/01 03:19:10;;;;;;;6.00;4.73;;;12.70;99.90;;;;;;4999771;28;20457;-74
2023/07/01 03:21:38;;;;;;;5.17;4.27;;;12.70;99.90;;;;;;4999652;28;20462;-74
2023/07/01 03:24:05;;;;;;;4.90;4.50;;;12.70;99.90;;;;;;4999160;28;20502;-74
2023/07/01 03:26:31;;;;;;;6.20;5.70;;;12.60;99.90;;;;;;4999267;28;20518;-74
2023/07/01 03:28:59;;;;;;;5.57;5.07;;;12.60;99.90;;;;;;4999486;28;20515;-74
2023/07/01 03:31:26;;;;;;;9.30;5.00;;;12.60;99.90;;;;;;5000033;28;20572;-74
2023/07/01 03:33:53;;;;;;;6.13;5.53;;;12.50;99.90;;;;;;4999638;28;20483;-74
2023/07/01 03:36:19;;;;;;;7.40;5.33;;;12.50;99.90;;;;;;4999021;28;20457;-74
2023/07/01 03:38:46;;;;;;;7.17;5.10;;;12.50;99.90;;;;;;4999399;28;20458;-74
2023/07/01 03:41:13;;;;;;;6.40;5.13;;;12.50;99.90;;;;;;4998591;28;20454;-74
2023/07/01 03:43:40;;;;;;;7.50;5.20;;;12.50;99.90;;;;;;4998167;28;20486;-74
2023/07/01 03:46:07;;;;;;;8.30;5.40;;;12.50;99.90;;;;;;4999019;28;20455;-73
2023/07/01 03:48:35;;;;;;;6.93;5.70;;;12.50;99.90;;;;;;4999047;28;20450;-74
2023/07/01 03:51:02;;;;;;;12.23;5.77;;;12.60;99.90;;;;;;4998592;28;20456;-74
2023/07/01 03:53:29;;;;;;;15.00;5.60;;;12.60;99.90;;;;;;4998513;28;21061;-74
2023/07/01 03:55:55;;;;;;;9.30;5.77;;;12.60;99.90;;;;;;4998663;28;20483;-74
2023/07/01 03:58:24;;;;;;;5.70;5.17;;;12.50;99.90;;;;;;4998492;28;20507;-74
2023/07/01 04:00:50;;;;;;;6.00;4.70;;;12.60;99.90;;;;;;4999121;28;20463;-74
2023/07/01 04:03:18;;;;;;;10.17;5.60;;;12.60;99.90;;;;;;4998837;28;20529;-74
2023/07/01 04:05:45;;;;;;;6.80;6.20;;;12.70;99.90;;;;;;4998853;28;20455;-74
2023/07/01 04:08:12;;;;;;;5.87;5.27;;;12.70;99.90;;;;;;4998195;28;20485;-74
2023/07/01 04:10:38;;;;;;;10.20;5.57;;;12.80;99.90;;;;;;4998551;28;20538;-74
2023/07/01 04:13:05;;;;;;;6.00;5.40;;;12.80;99.90;;;;;;4998619;28;20463;-74
2023/07/01 04:15:32;;;;;;;6.60;5.40;;;12.80;99.90;;;;;;4998714;28;20490;-74
2023/07/01 04:17:58;;;;;;;10.23;6.67;;;12.90;99.90;;;;;;4998602;28;20521;-74
2023/07/01 04:20:26;;;;;;;6.70;5.40;;;12.80;99.90;;;;;;4998626;28;20454;-74
2023/07/01 04:22:53;;;;;;;10.23;6.30;;;12.80;99.90;;;;;;4998251;28;20522;-74
2023/07/01 04:25:20;;;;;;;8.37;6.07;;;12.80;99.90;;;;;;4998401;28;20572;-75
2023/07/01 04:27:46;;;;;;;8.00;5.83;;;12.70;99.90;;;;;;4998168;28;20446;-73
2023/07/01 04:30:14;;;;;;;9.67;6.83;;;12.80;99.90;;;;;;4998676;28;20450;-74
2023/07/01 04:32:41;;;;;;;7.47;6.50;;;12.80;99.90;;;;;;4998357;28;20451;-74
2023/07/01 04:35:08;;;;;;;7.33;6.60;;;12.80;99.90;;;;;;4997845;28;20514;-74
2023/07/01 04:37:36;;;;;;;14.33;6.87;;;12.90;99.90;;;;;;4997656;28;20463;-74
2023/07/01 04:40:04;;;;;;;11.27;7.63;;;12.90;99.90;;;;;;4997954;28;20478;-74
2023/07/01 04:42:31;;;;;;;7.20;6.47;;;12.90;99.90;;;;;;4998169;28;20446;-74
2023/07/01 04:44:58;;;;;;;11.17;7.17;;;13.10;99.90;;;;;;4997829;28;20546;-74
2023/07/01 04:47:25;;;;;;;7.57;6.93;;;13.20;99.90;;;;;;4997758;28;20454;-74
2023/07/01 04:49:52;;;;;;;10.03;6.63;;;13.20;99.90;;;;;;4997735;28;20822;-74
2023/07/01 04:52:19;;;;;;;7.77;6.93;;;13.20;99.90;;;;;;4997718;28;20467;-74
2023/07/01 04:54:47;;;;;;;7.67;6.97;;;13.30;99.90;;;;;;4996119;28;20946;-71
2023/07/01 04:57:14;;;;;;;7.37;6.60;;;13.40;99.90;;;;;;4997756;28;20509;-72
2023/07/01 04:59:40;;;;;;;10.07;6.80;;;13.50;99.90;;;;;;4997883;28;20450;-74
2023/07/01 05:02:07;;;;;;;7.53;6.23;;;13.60;99.90;;;;;;4997895;28;20460;-74
2023/07/01 05:04:34;;;;;;;8.80;6.60;;;13.80;99.90;;;;;;4997344;28;20553;-74
2023/07/01 05:07:00;;;;;;;7.70;6.33;;;13.90;99.90;;;;;;4996584;28;20513;-74
2023/07/01 05:09:27;;;;;;;10.33;6.57;;;14.10;99.90;;;;;;4997190;28;20451;-74
2023/07/01 05:11:55;;;;;;;9.13;6.67;;;14.20;99.90;;;;;;4996776;28;20987;-74
2023/07/01 05:14:21;;;;;;;10.77;7.23;;;14.40;99.90;;;;;;4997392;28;20466;-74
2023/07/01 05:16:48;;;;;;;10.20;5.73;;;14.60;99.90;;;;;;4997626;28;20505;-74
2023/07/01 05:19:15;;;;;;;8.30;5.87;;;14.80;99.90;;;;;;4996771;28;20518;-74
2023/07/01 05:21:49;;;;;;;9.13;5.77;;;15.00;99.90;;;;;;4996982;28;20952;-74
2023/07/01 05:24:16;;;;;;;6.17;5.57;;;15.30;99.90;;;;;;4996753;28;20866;-72
2023/07/01 05:26:45;;;;;;;6.03;5.33;;;15.50;99.90;;;;;;4996936;28;20430;-73
2023/07/01 05:29:13;;;;;;;8.67;5.57;;;15.80;99.90;;;;;;4997360;28;20430;-72
2023/07/01 05:31:40;;;;;;;6.67;5.30;;;15.90;99.90;;;;;;4997269;28;20810;-72
2023/07/01 05:34:07;;;;;;;9.83;5.17;;;16.00;99.90;;;;;;4997036;28;20467;-73
2023/07/01 05:36:33;;;;;;;5.17;4.67;;;16.20;99.90;;;;;;4996713;28;20463;-72
2023/07/01 05:39:00;;;;;;;5.10;4.70;;;16.30;99.90;;;;;;4997303;28;20982;-71
2023/07/01 05:41:27;;;;;;;7.33;5.07;;;16.30;99.90;;;;;;4996977;28;20487;-71
2023/07/01 05:43:55;;;;;;;5.57;4.27;;;16.40;99.90;;;;;;4996948;28;20953;-71
2023/07/01 05:46:23;;;;;;;5.27;4.73;;;16.50;99.90;;;;;;4997135;28;20481;-71
2023/07/01 05:48:49;;;;;;;4.90;4.50;;;16.60;99.90;;;;;;4997006;28;20475;-71
2023/07/01 05:51:16;;;;;;;5.77;5.27;;;16.60;99.90;;;;;;4995947;28;20950;-71
2023/07/01 05:53:45;;;;;;;7.87;4.77;;;16.80;99.90;;;;;;4996736;28;20484;-69
2023/07/01 05:56:11;;;;;;;6.30;4.47;;;17.00;99.90;;;;;;4996203;28;20460;-70
2023/07/01 05:58:38;;;;;;;7.00;4.93;;;17.10;99.90;;;;;;4995883;28;20538;-70
2023/07/01 06:01:05;;;;;;;4.40;4.00;;;17.30;99.90;;;;;;4996453;28;20455;-70
2023/07/01 06:03:33;;;;;;;5.10;4.07;;;17.40;99.90;;;;;;4996427;28;20483;-70
2023/07/01 06:05:59;;;;;;;4.90;4.10;;;17.50;99.90;;;;;;4995677;28;20543;-70
2023/07/01 06:08:26;;;;;;;4.63;3.30;;;17.60;99.90;;;;;;4996171;28;20499;-69
2023/07/01 06:10:53;;;;;;;6.00;3.53;;;17.70;99.90;;;;;;4996565;28;20474;-70
2023/07/01 06:13:20;;;;;;;7.30;3.33;;;17.90;99.90;;;;;;4996577;28;20456;-72
2023/07/01 06:15:47;;;;;;;6.17;3.50;;;18.20;99.90;;;;;;4996277;28;20442;-70
2023/07/01 06:18:13;;;;;;;6.97;3.40;;;18.40;99.90;;;;;;4996051;28;21003;-70
2023/07/01 06:20:42;;;;;;;4.83;3.60;;;18.40;99.90;;;;;;4996765;28;20480;-70
2023/07/01 06:23:09;;;;;;;4.17;3.60;;;18.40;99.90;;;;;;4996316;28;20483;-70
2023/07/01 06:25:36;;;;;;;10.63;3.93;;;18.60;99.90;;;;;;4995937;28;20493;-71
2023/07/01 06:28:02;;;;;;;6.60;3.67;;;18.80;99.90;;;;;;4996289;28;20850;-70
2023/07/01 06:30:29;;;;;;;6.33;4.13;;;18.90;99.90;;;;;;4996525;28;20457;-70
2023/07/01 06:32:56;;;;;;;10.20;3.97;;;19.00;99.90;;;;;;4996324;28;20512;-70
2023/07/01 06:35:22;;;;;;;5.00;3.83;;;19.00;99.90;;;;;;4996391;28;20934;-70
2023/07/01 06:37:50;;;;;;;6.80;3.50;;;18.90;99.90;;;;;;4995083;28;20457;-70
2023/07/01 06:40:17;;;;;;;4.10;3.80;;;18.90;99.90;;;;;;4996086;28;20880;-70
2023/07/01 06:42:44;;;;;;;4.50;3.93;;;18.90;99.90;;;;;;4995989;28;20450;-70
2023/07/01 06:45:11;;;;;;;4.77;3.60;;;18.90;99.90;;;;;;4996151;28;20460;-71
2023/07/01 06:47:37;;;;;;;12.93;3.10;;;19.00;99.90;;;;;;4996739;28;20433;-70
2023/07/01 06:50:05;;;;;;;4.27;3.30;;;19.10;99.90;;;;;;4996378;28;20492;-70
2023/07/01 06:52:31;;;;;;;3.70;3.07;;;19.20;99.90;;;;;;4996182;28;20504;-70
2023/07/01 06:54:59;;;;;;;5.60;3.00;;;19.30;99.90;;;;;;4995510;28;21192;-70
2023/07/01 06:57:27;;;;;;;6.47;3.00;;;19.50;99.90;;;;;;4996102;28;20455;-69
2023/07/01 06:59:53;;;;;;;5.30;3.27;;;19.70;99.90;;;;;;4996321;28;20461;-69
2023/07/01 07:02:20;;;;;;;5.13;2.73;;;19.90;99.90;;;;;;4996205;28;20845;-68
2023/07/01 07:04:47;;;;;;;4.57;3.37;;;19.90;99.90;;;;;;4995864;28;20537;-69
2023/07/01 07:07:13;;;;;;;5.77;3.30;;;20.00;99.90;;;;;;4995405;28;20489;-69
2023/07/01 07:09:40;;;;;;;5.03;3.43;;;20.10;99.90;;;;;;4995274;28;20809;-69
2023/07/01 07:12:09;;;;;;;5.60;3.67;;;20.10;99.90;;;;;;4995819;28;20466;-69
2023/07/01 07:14:35;;;;;;;9.03;3.70;;;20.10;99.90;;;;;;4995981;28;20836;-68
2023/07/01 07:17:02;;;;;;;5.20;3.57;;;20.00;99.90;;;;;;4994439;28;20488;-68
2023/07/01 07:19:29;;;;;;;5.43;3.30;;;20.10;99.90;;;;;;4999272;28;20511;-69
2023/07/01 07:21:55;;;;;;;4.67;3.33;;;20.10;99.90;;;;;;4999046;28;20525;-69
2023/07/01 07:24:22;;;;;;;4.57;2.93;;;20.10;99.90;;;;;;4999381;28;20474;-69
2023/07/01 07:26:55;;;;;;;6.83;3.40;;;20.10;99.90;;;;;;4999272;28;20824;-69
2023/07/01 07:29:23;;;;;;;3.27;2.93;;;20.30;99.90;;;;;;4999596;28;21034;-69
2023/07/01 07:31:50;;;;;;;4.87;3.33;;;20.50;99.90;;;;;;4999768;28;20482;-69
2023/07/01 07:34:16;;;;;;;10.50;3.37;;;20.90;99.90;;;;;;4999087;28;20479;-68
2023/07/01 07:36:44;;;;;;;6.10;3.37;;;21.10;99.90;;;;;;4999329;28;20454;-69
2023/07/01 07:39:12;;;;;;;6.07;2.83;;;21.10;99.90;;;;;;4999203;28;20447;-69
2023/07/01 07:41:38;;;;;;;10.43;3.40;;;21.10;99.90;;;;;;4998847;28;20459;-69
2023/07/01 07:44:05;;;;;;;5.33;2.70;;;21.20;99.90;;;;;;4998505;28;20483;-68
2023/07/01 07:46:33;;;;;;;5.50;3.57;;;21.30;99.90;;;;;;4998952;28;21032;-69
2023/07/01 07:49:00;;;;;;;5.50;3.43;;;21.30;99.90;;;;;;4998914;28;20514;-69
2023/07/01 07:51:27;;;;;;;6.87;3.40;;;21.50;99.90;;;;;;4999178;28;20459;-68
2023/07/01 07:53:53;;;;;;;6.90;3.23;;;21.70;99.90;;;;;;4998413;28;20466;-69
2023/07/01 07:56:20;;;;;;;7.63;3.03;;;21.60;99.90;;;;;;4997579;28;20948;-70
2023/07/01 07:58:47;;;;;;;8.10;3.10;;;21.50;99.90;;;;;;4998210;28;20447;-70
2023/07/01 08:01:14;;;;;;;5.30;3.30;;;21.40;99.90;;;;;;4998346;28;20878;-69
2023/07/01 08:03:42;;;;;;;7.10;3.53;;;21.20;99.90;;;;;;4998228;28;20467;-69
2023/07/01 08:06:08;;;;;;;4.63;3.53;;;21.00;99.90;;;;;;4997579;28;20492;-69
2023/07/01 08:08:36;;;;;;;6.27;4.10;;;20.90;99.90;;;;;;4998255;28;20465;-69
2023/07/01 08:11:02;;;;;;;3.97;3.67;;;20.90;99.90;;;;;;4998000;28;20936;-69
2023/07/01 08:13:29;;;;;;;6.85;3.20;;;20.90;99.90;;;;;;4997332;28;20516;-71
2023/07/01 08:15:57;;;;;;;7.07;3.53;;;21.00;99.90;;;;;;4997878;28;20450;-69
2023/07/01 08:18:24;;;;;;;6.37;4.20;;;21.10;99.90;;;;;;4998037;28;21620;-71
2023/07/01 08:20:52;;;;;;;5.77;3.97;;;21.40;99.90;;;;;;4998218;28;20486;-71
2023/07/01 08:23:18;;;;;;;4.23;3.00;;;21.40;99.90;;;;;;4997806;28;20478;-70
2023/07/01 08:25:45;;;;;;;4.00;3.27;;;21.30;99.90;;;;;;4997844;28;21035;-70
2023/07/01 08:28:12;;;;;;;9.17;2.97;;;20.90;99.90;;;;;;4997474;28;20443;-71
2023/07/01 08:30:39;;;;;;;10.50;3.63;;;20.70;99.90;;;;;;4997947;28;20885;-71
2023/07/01 08:33:05;;;;;;;4.33;3.00;;;20.40;99.90;;;;;;4997893;28;20473;-71
2023/07/01 08:35:32;;;;;;;3.73;3.23;;;20.40;99.90;;;;;;4997822;28;20434;-69
2023/07/01 08:38:00;;;;;;;5.80;3.20;;;20.40;99.90;;;;;;4996627;28;20459;-71
2023/07/01 08:40:27;;;;;;;4.10;3.00;;;20.40;99.90;;;;;;4997195;28;20827;-70
2023/07/01 08:43:01;;;;;;;4.53;2.83;;;20.40;99.90;;;;;;4996904;28;20553;-71
2023/07/01 08:45:30;;;;;;;6.57;2.93;;;20.40;99.90;;;;;;4997483;28;21073;-71
2023/07/01 08:47:59;;;;;;;4.00;3.33;;;20.40;99.90;;;;;;4997551;28;20442;-71
2023/07/01 08:50:32;;;;;;;3.23;2.93;;;20.30;99.90;;;;;;4996760;28;20451;-71
2023/07/01 08:53:05;;;;;;;2.87;2.67;;;20.50;99.90;;;;;;4997167;28;20454;-70
2023/07/01 08:55:33;;;;;;;3.30;3.00;;;20.70;99.90;;;;;;4997285;28;20455;-69
2023/07/01 08:58:00;;;;;;;6.73;3.00;;;20.90;99.90;;;;;;4996693;28;20463;-70
2023/07/01 09:00:28;;;;;;;2.80;2.60;;;21.00;99.90;;;;;;4996831;28;20462;-70
2023/07/01 09:02:55;;;;;;;8.23;3.03;;;21.00;99.90;;;;;;4996522;28;20505;-70
2023/07/01 09:05:22;;;;;;;8.60;3.10;;;20.80;99.90;;;;;;4996765;28;20495;-69
2023/07/01 09:07:48;;;;;;;2.87;2.67;;;20.80;99.90;;;;;;4996911;28;20487;-68
2023/07/01 09:10:17;;;;;;;4.67;2.60;;;20.80;99.90;;;;;;4997517;28;20455;-70
2023/07/01 09:12:44;;;;;;;5.43;2.47;;;20.70;99.90;;;;;;4996868;28;20844;-70
2023/07/01 09:15:11;;;;;;;4.97;2.90;;;20.60;99.90;;;;;;4997283;28;20916;-70
2023/07/01 09:17:40;;;;;;;4.10;2.77;;;20.70;99.90;;;;;;4997576;28;20486;-70
2023/07/01 09:20:09;;;;;;;2.80;2.60;;;20.80;99.90;;;;;;4996738;28;20510;-70
2023/07/01 09:22:38;;;;;;;7.57;3.43;;;20.70;99.90;;;;;;4997413;28;20508;-70
2023/07/01 09:25:06;;;;;;;4.43;2.70;;;20.70;99.90;;;;;;4997230;28;20472;-71
2023/07/01 09:27:46;;;;;;;2.90;2.70;;;20.70;99.90;;;;;;4996769;28;20496;-70
2023/07/01 09:30:26;;;;;;;8.13;2.83;;;20.60;99.90;;;;;;4997114;28;21022;-70
2023/07/01 09:33:08;;;;;;;3.33;3.03;;;20.40;99.90;;;;;;4996551;28;20939;-70
2023/07/01 09:35:41;;;;;;;4.83;3.00;;;20.30;99.90;;;;;;4997406;28;20450;-70
2023/07/01 09:38:08;;;;;;;5.90;3.00;;;20.30;99.90;;;;;;4997133;28;21172;-70
2023/07/01 09:40:35;;;;;;;3.50;3.03;;;20.30;99.90;;;;;;4996202;28;20467;-70
2023/07/01 09:43:03;;;;;;;4.37;3.60;;;20.40;99.90;;;;;;4996519;28;20461;-70
2023/07/01 09:45:29;;;;;;;3.50;3.20;;;20.50;99.90;;;;;;4997131;28;20549;-71
2023/07/01 09:47:56;;;;;;;3.20;2.90;;;20.50;99.90;;;;;;4997014;28;20447;-70
2023/07/01 09:50:24;;;;;;;3.10;2.67;;;20.40;99.90;;;;;;4997230;28;20458;-70
2023/07/01 09:52:53;;;;;;;10.33;3.53;;;20.30;99.90;;;;;;4996408;28;20467;-69
2023/07/01 09:55:20;;;;;;;3.50;2.77;;;20.20;99.90;;;;;;4996872;28;21019;-70
2023/07/01 09:57:47;;;;;;;4.13;2.80;;;20.10;99.90;;;;;;4996842;28;20450;-69
2023/07/01 10:00:17;;;;;;;4.50;3.17;;;20.10;99.90;;;;;;4996922;28;20955;-70
2023/07/01 10:02:45;;;;;;;4.67;3.53;;;20.00;99.90;;;;;;4997503;28;20488;-70
2023/07/01 10:05:13;;;;;;;4.40;3.03;;;20.00;99.90;;;;;;4996258;28;20450;-70
2023/07/01 10:07:39;;;;;;;6.00;3.40;;;20.00;99.90;;;;;;4995781;28;20451;-70
2023/07/01 10:10:11;;;;;;;4.70;3.70;;;19.90;99.90;;;;;;4994819;28;20454;-69
2023/07/01 10:12:39;;;;;;;7.20;3.40;;;19.90;99.90;;;;;;4996099;28;20896;-70
2023/07/01 10:15:08;;;;;;;4.80;3.50;;;19.90;99.90;;;;;;4995734;28;20991;-69
2023/07/01 10:17:47;;;;;;;4.40;3.23;;;20.10;99.90;;;;;;4994915;28;20462;-70
2023/07/01 10:20:27;;;;;;;6.90;4.13;;;20.20;99.90;;;;;;4996210;28;20475;-69
2023/07/01 10:22:55;;;;;;;4.93;3.60;;;20.20;99.90;;;;;;4995857;28;20451;-70
2023/07/01 10:25:32;;;;;;;3.90;3.40;;;20.20;99.90;;;;;;4995901;28;20443;-68
2023/07/01 10:28:08;;;;;;;7.17;3.80;;;20.10;99.90;;;;;;4994131;28;20458;-68
2023/07/01 10:31:09;;;;;;;8.77;3.70;;;20.10;99.90;;;;;;4995507;28;20943;-70
2023/07/01 10:33:54;;;;;;;8.00;4.07;;;20.10;99.90;;;;;;4995679;28;20476;-69
2023/07/01 10:36:21;;;;;;;4.23;3.50;;;20.10;99.90;;;;;;4995519;28;21239;-70
2023/07/01 10:38:48;;;;;;;6.83;3.70;;;20.20;99.90;;;;;;4995424;28;20494;-69
2023/07/01 10:41:15;;;;;;;7.33;3.47;;;20.20;99.90;;;;;;4995908;28;20465;-70
2023/07/01 10:43:41;;;;;;;6.13;3.43;;;20.10;99.90;;;;;;4995465;28;20481;-71
2023/07/01 10:46:13;;;;;;;3.40;2.80;;;20.10;99.90;;;;;;4995616;28;20916;-69
2023/07/01 10:48:41;;;;;;;10.43;3.23;;;20.10;99.90;;;;;;4995553;28;20459;-70
2023/07/01 10:51:10;;;;;;;3.73;3.33;;;20.10;99.90;;;;;;4995560;28;20455;-69
2023/07/01 10:54:02;;;;;;;5.10;3.20;;;19.90;99.90;;;;;;4998293;28;20462;-70
2023/07/01 10:56:30;;;;;;;18.20;4.00;;;19.80;99.90;;;;;;4999475;28;21703;-70
2023/07/01 10:59:18;;;;;;;6.27;3.20;;;19.70;99.90;;;;;;4999201;28;20455;-69
2023/07/01 11:01:47;;;;;;;5.13;2.70;;;19.60;99.90;;;;;;4997799;28;20458;-69
2023/07/01 11:04:14;;;;;;;5.97;3.23;;;19.70;99.90;;;;;;4999981;28;20867;-71
2023/07/01 11:06:52;;;;;;;3.30;3.00;;;19.60;99.90;;;;;;4998958;28;20481;-69
2023/07/01 11:09:28;;;;;;;3.10;2.60;;;19.60;99.90;;;;;;4998452;28;20470;-68
2023/07/01 11:11:55;;;;;;;3.90;2.63;;;19.50;99.90;;;;;;4998875;28;20565;-69
2023/07/01 11:14:30;;;;;;;3.20;2.80;;;19.40;99.90;;;;;;4998870;28;20499;-68
2023/07/01 11:17:08;;;;;;;3.23;2.80;;;19.40;99.90;;;;;;4998578;28;20509;-68
2023/07/01 11:19:35;;;;;;;4.70;2.30;;;19.40;99.90;;;;;;4999012;28;20451;-69
2023/07/01 11:22:03;;;;;;;2.30;2.10;;;19.40;99.90;;;;;;4998442;28;20459;-69
2023/07/01 11:24:30;;;;;;;2.83;2.70;;;19.20;99.90;;;;;;4998643;28;21032;-69
2023/07/01 11:27:02;;;;;;;3.13;2.23;;;19.00;99.90;;;;;;4997716;28;20497;-68
2023/07/01 11:29:29;;;;;;;2.40;2.20;;;18.90;99.90;;;;;;4998999;28;20458;-70
2023/07/01 11:32:00;;;;;;;2.53;2.33;;;18.90;99.90;;;;;;4998883;28;20458;-69
2023/07/01 11:34:27;;;;;;;3.10;2.20;;;18.80;99.90;;;;;;4998452;28;20478;-69
2023/07/01 11:36:55;;;;;;;2.60;2.40;;;18.80;99.90;;;;;;4998619;28;20427;-69
2023/07/01 11:39:24;;;;;;;2.50;2.30;;;18.80;99.90;;;;;;4998613;28;20459;-69
2023/07/01 11:41:52;;;;;;;2.80;2.60;;;18.90;99.90;;;;;;4999238;28;20450;-69
2023/07/01 11:44:22;;;;;;;3.50;2.43;;;18.70;99.90;;;;;;4997804;28;20472;-69
2023/07/01 11:46:49;;;;;;;2.60;2.40;;;18.70;99.90;;;;;;4997833;28;20486;-69
2023/07/01 11:49:17;;;;;;;2.53;2.33;;;18.70;99.90;;;;;;4998478;28;20863;-70
2023/07/01 11:51:46;;;;;;;3.67;3.37;;;18.60;99.90;;;;;;4998351;28;20463;-69
2023/07/01 11:54:13;;;;;;;2.27;2.13;;;18.60;99.90;;;;;;4997613;28;20475;-69
2023/07/01 11:56:41;;;;;;;2.80;2.60;;;18.70;99.90;;;;;;4990905;28;20431;-70
2023/07/01 11:59:08;;;;;;;2.57;2.37;;;18.70;99.90;;;;;;4989199;28;20940;-70
2023/07/01 12:01:38;;;;;;;2.60;2.40;;;18.70;99.90;;;;;;4990651;28;20463;-69
2023/07/01 12:04:16;;;;;;;3.23;2.60;;;18.70;99.90;;;;;;4986356;28;20447;-70
2023/07/01 12:06:43;;;;;;;6.33;2.60;;;18.70;99.90;;;;;;4993582;28;21260;-70
2023/07/01 12:09:09;;;;;;;4.00;2.90;;;18.80;99.90;;;;;;4994137;28;20494;-69
2023/07/01 12:11:47;;;;;;;3.03;2.80;;;18.80;99.90;;;;;;4992241;28;20463;-68
2023/07/01 12:14:18;;;;;;;2.60;2.40;;;18.60;99.90;;;;;;4991806;28;20991;-68
2023/07/01 12:16:47;;;;;;;6.60;2.67;;;18.50;99.90;;;;;;4991329;28;20447;-69
2023/07/01 12:19:14;;;;;;;3.10;2.90;;;18.60;99.90;;;;;;4991473;28;20518;-70
2023/07/01 12:21:43;;;;;;;2.73;2.50;;;18.70;99.90;;;;;;4991533;28;20458;-70
2023/07/01 12:24:17;;;;;;;2.90;2.70;;;18.80;99.90;;;;;;4991229;28;20467;-70
2023/07/01 12:26:45;;;;;;;3.60;2.57;;;18.80;99.90;;;;;;4991349;28;20590;-70
2023/07/01 12:29:12;;;;;;;10.23;3.17;;;18.80;99.90;;;;;;4991693;28;20489;-70
2023/07/01 12:31:39;;;;;;;3.77;3.40;;;18.80;99.90;;;;;;4984350;28;20456;-70
2023/07/01 12:34:05;;;;;;;3.20;2.90;;;18.80;99.90;;;;;;4991841;28;20446;-70
2023/07/01 12:36:32;;;;;;;5.00;3.00;;;18.80;99.90;;;;;;4991690;28;21123;-70
2023/07/01 12:38:59;;;;;;;3.43;3.13;;;18.80;99.90;;;;;;4992054;28;20502;-68
2023/07/01 12:41:28;;;;;;;3.27;3.03;;;18.80;99.90;;;;;;4991345;28;20574;-69
2023/07/01 12:43:57;;;;;;;3.97;3.33;;;18.80;99.90;;;;;;4994817;28;20511;-69
2023/07/01 12:46:23;;;;;;;3.93;3.17;;;18.90;99.90;;;;;;4995122;28;20577;-70
2023/07/01 12:48:50;;;;;;;6.30;3.80;;;18.90;99.90;;;;;;4991803;28;20469;-68
2023/07/01 12:51:17;;;;;;;3.70;3.40;;;19.00;99.90;;;;;;4991979;28;20451;-70